createdAt,value
2022-11-13T00:00:46.566Z,74.09
2022-11-13T00:01:49.935Z,73.68
2022-11-13T00:02:52.434Z,73.79
2022-11-13T00:03:55.880Z,73.73
2022-11-13T00:04:58.423Z,73.75
2022-11-13T00:06:02.099Z,74.65
2022-11-13T00:07:05.528Z,74.29
2022-11-13T00:08:07.931Z,73.68
2022-11-13T00:09:12.512Z,73.60
2022-11-13T00:10:15.301Z,73.75
2022-11-13T00:11:20.572Z,73.97
2022-11-13T00:12:22.970Z,74.49
2022-11-13T00:13:30.344Z,74.90
2022-11-13T00:14:34.384Z,74.95
2022-11-13T00:15:38.139Z,73.95
2022-11-13T00:16:41.393Z,74.07
2022-11-13T00:17:43.647Z,73.48
2022-11-13T00:18:48.194Z,74.31
2022-11-13T00:19:50.571Z,73.98
2022-11-13T00:20:53.961Z,73.44
2022-11-13T00:21:59.749Z,74.03
2022-11-13T00:23:02.121Z,73.21
2022-11-13T00:24:05.912Z,73.59
2022-11-13T00:25:08.837Z,73.93
2022-11-13T00:26:14.345Z,74.69
2022-11-13T00:27:16.580Z,74.41
2022-11-13T00:28:19.908Z,74.25
2022-11-13T00:29:22.371Z,74.00
2022-11-13T00:30:25.661Z,74.16
2022-11-13T00:31:29.837Z,74.61
2022-11-13T00:32:33.311Z,74.61
2022-11-13T00:34:05.303Z,73.38
2022-11-13T00:34:59.219Z,73.51
2022-11-13T00:36:05.824Z,73.13
2022-11-13T00:37:09.122Z,73.51
2022-11-13T00:38:11.366Z,73.26
2022-11-13T00:39:14.993Z,73.15
2022-11-13T00:40:17.734Z,72.54
2022-11-13T00:41:21.400Z,73.25
2022-11-13T00:42:23.931Z,73.15
2022-11-13T00:43:27.574Z,73.47
2022-11-13T00:44:29.888Z,73.28
2022-11-13T00:45:33.416Z,73.08
2022-11-13T00:46:37.234Z,73.64
2022-11-13T00:47:40.569Z,74.03
2022-11-13T00:48:42.930Z,73.89
2022-11-13T00:49:46.372Z,74.51
2022-11-13T00:50:48.725Z,74.42
2022-11-13T00:51:52.098Z,74.56
2022-11-13T00:52:54.326Z,74.82
2022-11-13T00:53:57.746Z,75.04
2022-11-13T00:54:59.958Z,75.19
2022-11-13T00:56:03.497Z,75.10
2022-11-13T00:57:05.670Z,75.27
2022-11-13T00:58:09.234Z,74.66
2022-11-13T00:59:11.454Z,74.76
2022-11-13T01:00:15.103Z,74.46
2022-11-13T01:01:19.197Z,74.34
2022-11-13T01:02:24.087Z,74.63
2022-11-13T01:03:26.714Z,74.50
2022-11-13T01:04:30.368Z,75.13
2022-11-13T01:05:36.649Z,75.40
2022-11-13T01:06:40.046Z,75.13
2022-11-13T01:07:42.436Z,74.85
2022-11-13T01:08:46.078Z,75.11
2022-11-13T01:09:50.648Z,74.67
2022-11-13T01:10:54.197Z,74.22
2022-11-13T01:11:56.579Z,74.25
2022-11-13T01:13:00.005Z,74.11
2022-11-13T01:14:03.833Z,73.45
2022-11-13T01:15:06.960Z,73.89
2022-11-13T01:16:12.956Z,74.09
2022-11-13T01:17:15.310Z,75.15
2022-11-13T01:18:20.138Z,74.30
2022-11-13T01:19:22.349Z,74.95
2022-11-13T01:20:26.578Z,74.85
2022-11-13T01:21:29.489Z,74.91
2022-11-13T01:22:33.237Z,74.10
2022-11-13T01:23:35.955Z,74.58
2022-11-13T01:24:39.381Z,74.25
2022-11-13T01:25:42.092Z,74.36
2022-11-13T01:26:45.681Z,74.19
2022-11-13T01:27:48.215Z,75.08
2022-11-13T01:28:52.262Z,74.88
2022-11-13T01:29:54.681Z,75.15
2022-11-13T01:30:58.261Z,75.08
2022-11-13T01:32:00.889Z,74.77
2022-11-13T01:33:04.472Z,74.77
2022-11-13T01:34:08.375Z,74.53
2022-11-13T01:35:12.022Z,74.33
2022-11-13T01:36:17.077Z,74.50
2022-11-13T01:37:20.681Z,74.26
2022-11-13T01:38:22.914Z,73.68
2022-11-13T01:39:26.786Z,74.11
2022-11-13T01:40:29.597Z,74.11
2022-11-13T01:41:34.889Z,74.12
2022-11-13T01:42:37.658Z,74.39
2022-11-13T01:43:41.206Z,74.80
2022-11-13T01:44:49.509Z,75.09
2022-11-13T01:46:24.075Z,75.27
2022-11-13T01:47:26.889Z,76.18
2022-11-13T01:48:37.861Z,75.35
2022-11-13T01:49:44.107Z,75.44
2022-11-13T01:50:47.552Z,74.53
2022-11-13T01:51:52.621Z,74.21
2022-11-13T01:52:56.261Z,73.90
2022-11-13T01:54:01.081Z,73.73
2022-11-13T01:55:10.312Z,73.56
2022-11-13T01:56:13.448Z,73.64
2022-11-13T01:57:18.401Z,73.86
2022-11-13T01:58:21.530Z,74.01
2022-11-13T01:59:27.289Z,73.39
2022-11-13T02:00:29.676Z,73.87
2022-11-13T02:01:33.143Z,74.22
2022-11-13T02:02:36.133Z,74.50
2022-11-13T02:03:39.811Z,74.62
2022-11-13T02:04:44.210Z,74.06
2022-11-13T02:05:48.077Z,74.85
2022-11-13T02:06:54.644Z,75.20
2022-11-13T02:07:58.191Z,75.32
2022-11-13T02:09:00.531Z,74.65
2022-11-13T02:10:04.026Z,74.42
2022-11-13T02:11:06.937Z,73.96
2022-11-13T02:12:12.980Z,73.55
2022-11-13T02:13:16.312Z,74.56
2022-11-13T02:14:21.450Z,73.96
2022-11-13T02:15:25.594Z,74.09
2022-11-13T02:16:31.281Z,74.35
2022-11-13T02:17:41.084Z,74.36
2022-11-13T02:18:44.909Z,74.59
2022-11-13T02:19:53.881Z,75.22
2022-11-13T02:21:07.357Z,75.17
2022-11-13T02:22:18.119Z,75.57
2022-11-13T02:23:29.869Z,75.36
2022-11-13T02:24:38.885Z,74.49
2022-11-13T02:25:44.969Z,74.08
2022-11-13T02:26:51.029Z,76.09
2022-11-13T02:27:53.518Z,76.03
2022-11-13T02:28:56.841Z,75.50
2022-11-13T02:29:59.186Z,74.85
2022-11-13T02:31:09.703Z,75.73
2022-11-13T02:32:12.194Z,75.07
2022-11-13T02:33:24.667Z,74.19
2022-11-13T02:34:26.989Z,74.75
2022-11-13T02:35:33.354Z,74.36
2022-11-13T02:36:36.801Z,74.25
2022-11-13T02:37:40.352Z,74.33
2022-11-13T02:38:43.726Z,74.22
2022-11-13T02:39:48.906Z,73.85
2022-11-13T02:40:51.266Z,73.95
2022-11-13T02:41:54.703Z,74.09
2022-11-13T02:42:56.966Z,74.54
2022-11-13T02:44:00.454Z,74.73
2022-11-13T02:45:02.865Z,74.40
2022-11-13T02:46:06.404Z,74.92
2022-11-13T02:47:08.723Z,74.38
2022-11-13T02:48:12.013Z,73.81
2022-11-13T02:49:14.412Z,75.27
2022-11-13T02:50:18.416Z,74.71
2022-11-13T02:51:20.761Z,74.92
2022-11-13T02:52:24.133Z,75.05
2022-11-13T02:53:26.568Z,74.07
2022-11-13T02:54:30.085Z,74.66
2022-11-13T02:55:33.818Z,74.64
2022-11-13T02:56:37.252Z,73.58
2022-11-13T02:57:39.589Z,73.55
2022-11-13T02:58:42.990Z,73.98
2022-11-13T02:59:45.918Z,74.10
2022-11-13T03:00:49.337Z,73.39
2022-11-13T03:01:51.734Z,72.71
2022-11-13T03:02:55.921Z,72.90
2022-11-13T03:03:58.630Z,73.35
2022-11-13T03:05:11.947Z,73.29
2022-11-13T03:06:15.471Z,73.51
2022-11-13T03:07:18.861Z,73.24
2022-11-13T03:08:21.741Z,74.14
2022-11-13T03:09:25.157Z,73.46
2022-11-13T03:10:27.480Z,73.61
2022-11-13T03:11:32.280Z,73.57
2022-11-13T03:12:34.702Z,73.73
2022-11-13T03:13:38.854Z,73.72
2022-11-13T03:14:41.556Z,73.33
2022-11-13T03:15:45.946Z,73.23
2022-11-13T03:16:48.700Z,73.38
2022-11-13T03:17:52.322Z,73.23
2022-11-13T03:18:55.935Z,72.76
2022-11-13T03:19:59.727Z,72.75
2022-11-13T03:21:08.068Z,72.82
2022-11-13T03:22:11.477Z,72.92
2022-11-13T03:23:14.352Z,73.06
2022-11-13T03:24:17.851Z,73.39
2022-11-13T03:25:20.381Z,73.66
2022-11-13T03:26:23.830Z,74.05
2022-11-13T03:27:27.488Z,73.71
2022-11-13T03:28:31.304Z,73.56
2022-11-13T03:29:33.695Z,73.22
2022-11-13T03:30:37.223Z,72.93
2022-11-13T03:31:39.580Z,72.51
2022-11-13T03:32:42.988Z,73.42
2022-11-13T03:33:46.278Z,73.45
2022-11-13T03:34:48.526Z,72.90
2022-11-13T03:35:51.836Z,73.21
2022-11-13T03:36:54.281Z,73.09
2022-11-13T03:37:57.553Z,73.07
2022-11-13T03:38:59.774Z,72.72
2022-11-13T03:40:03.145Z,72.52
2022-11-13T03:41:05.708Z,72.82
2022-11-13T03:42:08.965Z,72.16
2022-11-13T03:43:12.848Z,71.87
2022-11-13T03:44:16.233Z,72.59
2022-11-13T03:45:19.271Z,73.50
2022-11-13T03:46:22.735Z,73.59
2022-11-13T03:47:25.178Z,73.20
2022-11-13T03:48:28.799Z,74.12
2022-11-13T03:49:31.359Z,73.66
2022-11-13T03:50:35.015Z,73.92
2022-11-13T03:51:37.492Z,73.55
2022-11-13T03:52:41.172Z,73.48
2022-11-13T03:53:43.743Z,74.35
2022-11-13T03:54:47.100Z,74.12
2022-11-13T03:55:49.487Z,73.94
2022-11-13T03:56:52.846Z,73.94
2022-11-13T03:57:55.883Z,73.01
2022-11-13T03:59:03.332Z,73.25
2022-11-13T04:00:06.857Z,73.70
2022-11-13T04:01:10.384Z,73.77
2022-11-13T04:02:12.770Z,72.95
2022-11-13T04:03:16.215Z,73.57
2022-11-13T04:04:18.926Z,73.29
2022-11-13T04:05:23.169Z,73.88
2022-11-13T04:06:25.704Z,74.61
2022-11-13T04:07:29.196Z,75.34
2022-11-13T04:08:31.702Z,75.04
2022-11-13T04:09:35.447Z,74.64
2022-11-13T04:10:37.980Z,75.10
2022-11-13T04:11:41.554Z,75.36
2022-11-13T04:12:44.175Z,75.18
2022-11-13T04:13:47.972Z,75.58
2022-11-13T04:14:52.503Z,75.71
2022-11-13T04:15:57.304Z,75.69
2022-11-13T04:16:59.768Z,75.64
2022-11-13T04:18:03.457Z,75.09
2022-11-13T04:19:05.827Z,75.21
2022-11-13T04:20:10.628Z,75.52
2022-11-13T04:21:13.208Z,75.52
2022-11-13T04:22:16.787Z,75.86
2022-11-13T04:23:19.162Z,76.08
2022-11-13T04:24:22.856Z,75.58
2022-11-13T04:25:25.171Z,76.14
2022-11-13T04:26:28.440Z,75.92
2022-11-13T04:27:30.754Z,75.96
2022-11-13T04:28:34.148Z,76.06
2022-11-13T04:29:36.451Z,75.67
2022-11-13T04:30:41.270Z,75.20
2022-11-13T04:31:43.573Z,75.78
2022-11-13T04:32:47.188Z,75.75
2022-11-13T04:33:49.475Z,75.89
2022-11-13T04:34:52.976Z,76.21
2022-11-13T04:35:55.428Z,76.49
2022-11-13T04:36:58.812Z,76.05
2022-11-13T04:38:01.186Z,76.79
2022-11-13T04:39:04.725Z,76.57
2022-11-13T04:40:08.512Z,76.59
2022-11-13T04:41:31.660Z,76.92
2022-11-13T04:42:50.816Z,77.47
2022-11-13T04:43:53.649Z,76.90
2022-11-13T04:44:56.411Z,77.17
2022-11-13T04:46:01.335Z,77.54
2022-11-13T04:47:03.591Z,77.89
2022-11-13T04:48:07.202Z,77.72
2022-11-13T04:49:09.715Z,77.58
2022-11-13T04:50:13.963Z,77.11
2022-11-13T04:51:16.330Z,77.10
2022-11-13T04:52:19.704Z,76.76
2022-11-13T04:53:22.218Z,76.22
2022-11-13T04:54:28.704Z,77.43
2022-11-13T04:55:31.400Z,77.27
2022-11-13T04:56:34.733Z,77.45
2022-11-13T04:57:37.157Z,77.36
2022-11-13T04:58:40.534Z,76.97
2022-11-13T04:59:42.759Z,77.15
2022-11-13T05:00:46.271Z,77.02
2022-11-13T05:01:49.842Z,77.44
2022-11-13T05:02:53.317Z,76.82
2022-11-13T05:03:55.917Z,77.36
2022-11-13T05:05:04.587Z,76.73
2022-11-13T05:06:09.009Z,76.73
2022-11-13T05:07:13.020Z,76.44
2022-11-13T05:08:15.461Z,76.88
2022-11-13T05:09:18.919Z,76.68
2022-11-13T05:10:22.155Z,76.96
2022-11-13T05:11:25.541Z,76.77
2022-11-13T05:12:27.877Z,76.68
2022-11-13T05:13:33.218Z,77.27
2022-11-13T05:14:36.266Z,77.22
2022-11-13T05:15:39.765Z,77.40
2022-11-13T05:16:42.204Z,77.63
2022-11-13T05:17:50.418Z,77.75
2022-11-13T05:18:52.699Z,78.25
2022-11-13T05:19:56.145Z,77.84
2022-11-13T05:20:58.653Z,78.28
2022-11-13T05:22:02.029Z,77.55
2022-11-13T05:23:04.210Z,77.83
2022-11-13T05:24:08.192Z,78.00
2022-11-13T05:25:10.637Z,78.42
2022-11-13T05:26:15.186Z,77.95
2022-11-13T05:27:17.950Z,77.43
2022-11-13T05:28:21.762Z,77.02
2022-11-13T05:29:24.580Z,77.41
2022-11-13T05:30:28.103Z,76.96
2022-11-13T05:31:30.565Z,76.90
2022-11-13T05:32:34.087Z,76.82
2022-11-13T05:33:39.580Z,77.20
2022-11-13T05:34:43.285Z,77.64
2022-11-13T05:35:45.664Z,77.73
2022-11-13T05:36:49.029Z,77.24
2022-11-13T05:37:51.445Z,77.83
2022-11-13T05:38:54.729Z,77.59
2022-11-13T05:39:57.102Z,77.49
2022-11-13T05:41:04.839Z,77.29
2022-11-13T05:42:07.145Z,77.32
2022-11-13T05:43:10.734Z,77.38
2022-11-13T05:44:13.100Z,77.98
2022-11-13T05:45:16.686Z,78.06
2022-11-13T05:46:20.696Z,77.97
2022-11-13T05:47:24.120Z,77.09
2022-11-13T05:48:26.843Z,77.11
2022-11-13T05:49:31.956Z,77.47
2022-11-13T05:50:34.286Z,77.27
2022-11-13T05:51:37.676Z,76.78
2022-11-13T05:52:40.032Z,76.53
2022-11-13T05:53:45.167Z,76.25
2022-11-13T05:54:47.876Z,76.09
2022-11-13T05:55:51.877Z,76.55
2022-11-13T05:56:55.262Z,75.99
2022-11-13T05:57:59.117Z,76.12
2022-11-13T05:59:03.650Z,76.59
2022-11-13T06:00:07.595Z,76.51
2022-11-13T06:01:13.585Z,76.42
2022-11-13T06:02:16.140Z,76.37
2022-11-13T06:03:19.471Z,75.79
2022-11-13T06:04:21.780Z,75.99
2022-11-13T06:05:26.447Z,76.75
2022-11-13T06:06:31.736Z,76.80
2022-11-13T06:07:34.231Z,76.21
2022-11-13T06:08:38.143Z,75.86
2022-11-13T06:09:41.839Z,76.35
2022-11-13T06:10:44.598Z,76.00
2022-11-13T06:11:48.849Z,76.05
2022-11-13T06:12:51.057Z,75.90
2022-11-13T06:13:55.372Z,75.71
2022-11-13T06:14:57.626Z,75.57
2022-11-13T06:16:02.933Z,75.34
2022-11-13T06:17:05.229Z,74.50
2022-11-13T06:18:08.460Z,74.40
2022-11-13T06:19:11.181Z,74.47
2022-11-13T06:20:14.980Z,74.38
2022-11-13T06:21:21.148Z,73.91
2022-11-13T06:22:24.435Z,74.66
2022-11-13T06:23:26.725Z,74.87
2022-11-13T06:24:30.326Z,75.62
2022-11-13T06:25:32.754Z,75.79
2022-11-13T06:26:37.752Z,75.80
2022-11-13T06:27:40.588Z,76.78
2022-11-13T06:28:44.795Z,76.84
2022-11-13T06:29:47.257Z,77.02
2022-11-13T06:30:51.036Z,77.25
2022-11-13T06:31:55.067Z,76.75
2022-11-13T06:32:57.705Z,76.77
2022-11-13T06:34:02.368Z,77.66
2022-11-13T06:35:05.699Z,77.75
2022-11-13T06:36:12.223Z,78.09
2022-11-13T06:37:16.972Z,78.29
2022-11-13T06:38:19.198Z,78.16
2022-11-13T06:39:22.539Z,77.73
2022-11-13T06:40:25.171Z,77.32
2022-11-13T06:41:31.429Z,77.25
2022-11-13T06:42:33.805Z,76.72
2022-11-13T06:43:37.229Z,76.75
2022-11-13T06:44:40.910Z,76.81
2022-11-13T06:45:43.201Z,76.72
2022-11-13T06:46:46.686Z,76.23
2022-11-13T06:47:49.007Z,76.38
2022-11-13T06:48:52.958Z,75.98
2022-11-13T06:49:55.422Z,75.23
2022-11-13T06:51:02.699Z,75.47
2022-11-13T06:52:05.383Z,75.69
2022-11-13T06:53:10.248Z,75.50
2022-11-13T06:54:14.080Z,75.61
2022-11-13T06:55:16.791Z,75.52
2022-11-13T06:56:20.681Z,75.63
2022-11-13T06:57:23.300Z,76.02
2022-11-13T06:58:27.545Z,75.87
2022-11-13T06:59:30.263Z,76.14
2022-11-13T07:00:36.705Z,75.37
2022-11-13T07:01:40.659Z,74.05
2022-11-13T07:02:44.753Z,74.46
2022-11-13T07:03:47.635Z,73.67
2022-11-13T07:04:51.297Z,74.48
2022-11-13T07:05:55.006Z,74.92
2022-11-13T07:06:57.470Z,75.40
2022-11-13T07:08:00.930Z,75.52
2022-11-13T07:09:05.065Z,75.39
2022-11-13T07:10:09.757Z,76.10
2022-11-13T07:11:13.888Z,75.80
2022-11-13T07:12:17.341Z,75.38
2022-11-13T07:13:19.862Z,74.98
2022-11-13T07:14:23.335Z,75.20
2022-11-13T07:15:26.042Z,74.94
2022-11-13T07:16:44.026Z,75.17
2022-11-13T07:17:51.446Z,75.63
2022-11-13T07:18:55.067Z,76.79
2022-11-13T07:19:57.295Z,76.71
2022-11-13T07:21:04.582Z,76.31
2022-11-13T07:22:07.976Z,75.68
2022-11-13T07:23:10.656Z,75.38
2022-11-13T07:24:17.104Z,75.42
2022-11-13T07:25:19.532Z,75.49
2022-11-13T07:26:22.898Z,75.01
2022-11-13T07:27:25.115Z,74.88
2022-11-13T07:28:28.785Z,74.81
2022-11-13T07:29:31.045Z,74.56
2022-11-13T07:30:34.312Z,73.84
2022-11-13T07:31:36.516Z,73.56
2022-11-13T07:32:39.781Z,73.31
2022-11-13T07:33:42.093Z,73.97
2022-11-13T07:34:45.613Z,74.13
2022-11-13T07:35:48.112Z,73.64
2022-11-13T07:36:51.403Z,73.78
2022-11-13T07:37:56.160Z,73.67
2022-11-13T07:39:00.465Z,73.84
2022-11-13T07:40:05.632Z,74.44
2022-11-13T07:41:09.188Z,74.13
2022-11-13T07:42:11.500Z,74.03
2022-11-13T07:43:14.982Z,74.53
2022-11-13T07:44:39.885Z,74.34
2022-11-13T07:45:40.877Z,75.49
2022-11-13T07:46:43.183Z,74.75
2022-11-13T07:47:46.412Z,75.03
2022-11-13T07:48:48.666Z,74.80
2022-11-13T07:49:52.183Z,74.49
2022-11-13T07:50:55.837Z,74.24
2022-11-13T07:51:58.049Z,74.30
2022-11-13T07:53:03.333Z,74.78
2022-11-13T07:54:05.792Z,74.60
2022-11-13T07:55:11.031Z,74.39
2022-11-13T07:56:17.652Z,73.98
2022-11-13T07:57:23.131Z,73.65
2022-11-13T07:58:26.834Z,73.57
2022-11-13T07:59:29.483Z,73.27
2022-11-13T08:00:35.691Z,73.57
2022-11-13T08:01:38.551Z,73.14
2022-11-13T08:02:42.041Z,73.17
2022-11-13T08:03:45.280Z,73.44
2022-11-13T08:04:47.602Z,73.77
2022-11-13T08:05:51.341Z,73.72
2022-11-13T08:06:53.670Z,74.10
2022-11-13T08:07:57.207Z,74.23
2022-11-13T08:08:59.797Z,74.96
2022-11-13T08:10:03.243Z,74.99
2022-11-13T08:11:10.626Z,74.65
2022-11-13T08:12:13.287Z,74.08
2022-11-13T08:13:16.626Z,74.28
2022-11-13T08:14:18.981Z,73.83
2022-11-13T08:15:22.284Z,73.90
2022-11-13T08:16:24.577Z,73.49
2022-11-13T08:17:27.971Z,73.55
2022-11-13T08:18:32.998Z,73.08
2022-11-13T08:19:35.517Z,72.93
2022-11-13T08:20:38.893Z,73.04
2022-11-13T08:21:41.206Z,73.07
2022-11-13T08:22:44.543Z,72.85
2022-11-13T08:23:47.201Z,73.10
2022-11-13T08:24:53.721Z,73.50
2022-11-13T08:25:57.170Z,73.04
2022-11-13T08:27:01.873Z,74.26
2022-11-13T08:28:10.161Z,74.07
2022-11-13T08:29:16.476Z,74.39
2022-11-13T08:30:21.267Z,73.85
2022-11-13T08:31:23.619Z,73.97
2022-11-13T08:32:26.835Z,73.53
2022-11-13T08:33:30.798Z,73.82
2022-11-13T08:34:32.933Z,73.58
2022-11-13T08:35:36.467Z,72.86
2022-11-13T08:36:39.711Z,72.92
2022-11-13T08:37:42.014Z,73.03
2022-11-13T08:38:45.298Z,73.45
2022-11-13T08:39:48.647Z,73.67
2022-11-13T08:40:52.691Z,73.55
2022-11-13T08:41:56.402Z,73.93
2022-11-13T08:43:05.620Z,73.85
2022-11-13T08:44:08.197Z,73.21
2022-11-13T08:45:12.258Z,73.84
2022-11-13T08:46:16.177Z,73.93
2022-11-13T08:47:19.578Z,73.74
2022-11-13T08:48:21.985Z,73.95
2022-11-13T08:49:25.474Z,74.03
2022-11-13T08:50:29.134Z,74.06
2022-11-13T08:51:32.966Z,73.49
2022-11-13T08:52:35.277Z,74.14
2022-11-13T08:53:38.606Z,73.32
2022-11-13T08:54:41.584Z,73.21
2022-11-13T08:55:45.105Z,73.81
2022-11-13T08:56:55.639Z,73.78
2022-11-13T08:58:01.249Z,73.95
2022-11-13T08:59:04.820Z,73.43
2022-11-13T09:00:09.080Z,74.28
2022-11-13T09:01:11.273Z,73.85
2022-11-13T09:02:16.845Z,73.22
2022-11-13T09:03:19.117Z,73.91
2022-11-13T09:04:22.669Z,73.96
2022-11-13T09:05:25.522Z,73.20
2022-11-13T09:06:29.171Z,73.39
2022-11-13T09:07:31.808Z,73.38
2022-11-13T09:08:35.227Z,73.04
2022-11-13T09:09:37.641Z,73.27
2022-11-13T09:10:41.244Z,72.71
2022-11-13T09:11:43.751Z,72.66
2022-11-13T09:12:47.229Z,72.71
2022-11-13T09:13:53.557Z,72.80
2022-11-13T09:14:57.668Z,71.78
2022-11-13T09:16:01.540Z,70.59
2022-11-13T09:17:04.440Z,70.73
2022-11-13T09:18:08.027Z,69.67
2022-11-13T09:19:10.286Z,69.61
2022-11-13T09:20:14.362Z,69.26
2022-11-13T09:21:18.628Z,69.04
2022-11-13T09:22:21.025Z,68.67
2022-11-13T09:23:24.664Z,68.91
2022-11-13T09:24:27.503Z,68.07
2022-11-13T09:25:37.032Z,68.86
2022-11-13T09:26:39.941Z,68.82
2022-11-13T09:27:43.395Z,70.74
2022-11-13T09:28:46.616Z,71.40
2022-11-13T09:29:54.263Z,70.11
2022-11-13T09:31:00.222Z,69.90
2022-11-13T09:32:03.442Z,70.18
2022-11-13T09:33:07.663Z,69.26
2022-11-13T09:34:11.033Z,68.14
2022-11-13T09:35:13.373Z,68.54
2022-11-13T09:36:17.635Z,68.47
2022-11-13T09:37:20.104Z,69.48
2022-11-13T09:38:23.627Z,68.81
2022-11-13T09:39:27.100Z,68.37
2022-11-13T09:40:34.221Z,69.05
2022-11-13T09:41:42.324Z,69.32
2022-11-13T09:42:45.756Z,69.74
2022-11-13T09:43:58.414Z,70.32
2022-11-13T09:45:07.344Z,70.79
2022-11-13T09:46:18.993Z,70.23
2022-11-13T09:47:28.764Z,71.37
2022-11-13T09:48:36.404Z,70.62
2022-11-13T09:49:43.160Z,70.26
2022-11-13T09:50:46.511Z,71.07
2022-11-13T09:51:54.117Z,70.96
2022-11-13T09:52:56.355Z,70.46
2022-11-13T09:54:03.987Z,69.86
2022-11-13T09:55:09.765Z,70.70
2022-11-13T09:56:29.926Z,71.62
2022-11-13T09:57:41.563Z,69.98
2022-11-13T09:58:49.462Z,69.72
2022-11-13T09:59:56.785Z,68.91
2022-11-13T10:01:01.447Z,69.09
2022-11-13T10:02:24.387Z,69.39
2022-11-13T10:05:06.772Z,69.97
2022-11-13T10:06:16.537Z,69.75
2022-11-13T10:07:30.884Z,69.66
2022-11-13T10:08:44.603Z,68.99
2022-11-13T10:10:01.723Z,69.46
2022-11-13T10:11:12.515Z,69.05
2022-11-13T10:12:17.189Z,69.00
2022-11-13T10:13:24.457Z,68.91
2022-11-13T10:14:33.176Z,68.91
2022-11-13T10:15:38.612Z,69.31
2022-11-13T10:16:47.317Z,68.10
2022-11-13T10:17:56.879Z,67.98
2022-11-13T10:19:09.390Z,68.59
2022-11-13T10:20:16.564Z,67.89
2022-11-13T10:21:30.866Z,67.84
2022-11-13T10:22:40.866Z,67.27
2022-11-13T10:23:48.862Z,65.76
2022-11-13T10:24:54.365Z,65.52
2022-11-13T10:26:01.927Z,65.80
2022-11-13T10:27:09.135Z,65.86
2022-11-13T10:28:48.085Z,65.90
2022-11-13T10:29:46.196Z,66.22
2022-11-13T10:30:51.690Z,66.71
2022-11-13T10:31:55.055Z,66.85
2022-11-13T10:33:06.469Z,66.24
2022-11-13T10:34:10.802Z,66.43
2022-11-13T10:35:42.573Z,66.50
2022-11-13T10:36:57.059Z,66.24
2022-11-13T10:38:07.886Z,66.59
2022-11-13T10:39:12.360Z,67.06
2022-11-13T10:40:25.570Z,66.53
2022-11-13T10:41:28.994Z,65.16
2022-11-13T10:42:38.680Z,65.09
2022-11-13T10:43:55.830Z,65.38
2022-11-13T10:45:00.454Z,64.91
2022-11-13T10:46:05.841Z,65.27
2022-11-13T10:47:16.013Z,65.08
2022-11-13T10:48:25.556Z,65.48
2022-11-13T10:49:29.333Z,66.07
2022-11-13T10:50:33.585Z,65.48
2022-11-13T10:51:37.536Z,65.73
2022-11-13T10:52:46.085Z,65.90
2022-11-13T10:53:49.781Z,65.11
2022-11-13T10:55:12.417Z,65.48
2022-11-13T10:56:29.583Z,65.70
2022-11-13T10:57:34.779Z,66.48
2022-11-13T10:58:38.101Z,65.58
2022-11-13T10:59:43.777Z,65.14
2022-11-13T11:00:49.244Z,65.08
2022-11-13T11:01:52.904Z,65.27
2022-11-13T11:02:55.268Z,65.64
2022-11-13T11:04:00.185Z,65.63
2022-11-13T11:05:05.170Z,65.27
2022-11-13T11:06:09.097Z,64.95
2022-11-13T11:07:20.689Z,65.42
2022-11-13T11:08:31.224Z,64.59
2022-11-13T11:09:39.345Z,65.13
2022-11-13T11:11:01.617Z,64.36
2022-11-13T11:12:18.518Z,64.65
2022-11-13T11:13:24.057Z,65.12
2022-11-13T11:14:30.680Z,65.50
2022-11-13T11:15:44.960Z,64.86
2022-11-13T11:16:51.041Z,65.12
2022-11-13T11:17:59.217Z,65.20
2022-11-13T11:19:09.541Z,65.14
2022-11-13T11:20:22.629Z,64.71
2022-11-13T11:21:31.364Z,64.90
2022-11-13T11:22:37.330Z,64.57
2022-11-13T11:23:49.544Z,64.76
2022-11-13T11:25:02.587Z,65.50
2022-11-13T11:26:11.741Z,65.63
2022-11-13T11:27:23.220Z,65.81
2022-11-13T11:28:37.472Z,65.49
2022-11-13T11:29:46.227Z,66.00
2022-11-13T11:30:54.527Z,65.63
2022-11-13T11:32:02.265Z,65.39
2022-11-13T11:33:13.396Z,65.83
2022-11-13T11:34:25.367Z,65.90
2022-11-13T11:35:37.970Z,65.47
2022-11-13T11:36:50.134Z,65.58
2022-11-13T11:37:58.269Z,65.81
2022-11-13T11:39:17.009Z,65.54
2022-11-13T11:40:28.433Z,64.88
2022-11-13T11:41:38.515Z,64.89
2022-11-13T11:42:48.700Z,64.60
2022-11-13T11:44:02.127Z,64.65
2022-11-13T11:45:15.668Z,65.02
2022-11-13T11:46:23.307Z,64.66
2022-11-13T11:47:26.905Z,64.13
2022-11-13T11:48:31.733Z,64.98
2022-11-13T11:49:36.757Z,64.40
2022-11-13T11:50:46.383Z,64.35
2022-11-13T11:52:01.478Z,63.35
2022-11-13T11:53:14.380Z,63.09
2022-11-13T11:54:34.422Z,63.44
2022-11-13T11:55:51.743Z,63.92
2022-11-13T11:56:59.155Z,63.42
2022-11-13T11:58:15.237Z,63.39
2022-11-13T11:59:36.500Z,62.44
2022-11-13T12:00:47.544Z,62.29
2022-11-13T12:02:32.426Z,62.07
2022-11-13T12:04:01.110Z,61.69
2022-11-13T12:05:20.831Z,61.44
2022-11-13T12:06:37.091Z,60.17
2022-11-13T12:07:48.067Z,60.61
2022-11-13T12:08:58.228Z,60.93
2022-11-13T12:10:09.142Z,61.19
2022-11-13T12:11:19.180Z,61.99
2022-11-13T12:12:31.851Z,61.47
2022-11-13T12:13:44.429Z,61.71
2022-11-13T12:14:57.513Z,61.97
2022-11-13T12:16:12.489Z,61.29
2022-11-13T12:17:29.106Z,62.10
2022-11-13T12:18:42.312Z,61.85
2022-11-13T12:19:54.596Z,62.50
2022-11-13T12:21:09.990Z,62.14
2022-11-13T12:22:25.866Z,61.52
2022-11-13T12:23:47.789Z,61.70
2022-11-13T12:25:07.371Z,62.14
2022-11-13T12:26:21.644Z,61.71
2022-11-13T12:27:31.215Z,61.44
2022-11-13T12:28:42.166Z,62.31
2022-11-13T12:29:57.900Z,62.52
2022-11-13T12:31:14.334Z,62.76
2022-11-13T12:32:33.412Z,62.97
2022-11-13T12:33:47.394Z,62.89
2022-11-13T12:34:53.434Z,62.51
2022-11-13T12:35:57.100Z,61.58
2022-11-13T12:37:05.161Z,61.57
2022-11-13T12:38:20.268Z,61.40
2022-11-13T12:39:38.227Z,61.83
2022-11-13T12:40:51.797Z,62.00
2022-11-13T12:42:01.115Z,62.11
2022-11-13T12:43:30.183Z,62.38
2022-11-13T12:44:44.768Z,62.91
2022-11-13T12:45:53.608Z,63.36
2022-11-13T12:47:01.565Z,62.64
2022-11-13T12:48:10.328Z,63.18
2022-11-13T12:49:27.709Z,63.05
2022-11-13T12:50:33.108Z,63.03
2022-11-13T12:51:40.752Z,63.03
2022-11-13T12:52:45.652Z,63.38
2022-11-13T12:53:51.138Z,63.13
2022-11-13T12:55:05.584Z,63.34
2022-11-13T12:56:16.759Z,63.23
2022-11-13T12:57:27.182Z,63.33
2022-11-13T12:58:34.586Z,62.24
2022-11-13T12:59:40.547Z,62.43
2022-11-13T13:00:55.962Z,62.29
2022-11-13T13:02:19.013Z,63.02
2022-11-13T13:03:45.886Z,62.95
2022-11-13T13:05:02.272Z,62.62
2022-11-13T13:06:23.104Z,62.34
2022-11-13T13:07:45.445Z,62.92
2022-11-13T13:09:14.314Z,62.63
2022-11-13T13:10:25.041Z,62.11
2022-11-13T13:11:38.509Z,62.22
2022-11-13T13:12:49.688Z,61.63
2022-11-13T13:14:15.275Z,62.13
2022-11-13T13:15:33.074Z,62.02
2022-11-13T13:16:35.378Z,63.16
2022-11-13T13:17:38.546Z,63.14
2022-11-13T13:18:40.884Z,63.15
2022-11-13T13:19:44.151Z,63.02
2022-11-13T13:20:59.588Z,63.04
2022-11-13T13:22:01.885Z,62.23
2022-11-13T13:23:08.631Z,61.78
2022-11-13T13:24:30.005Z,62.27
2022-11-13T13:25:35.193Z,62.41
2022-11-13T13:26:47.740Z,62.19
2022-11-13T13:27:57.212Z,61.73
2022-11-13T13:29:12.818Z,61.25
2022-11-13T13:30:21.028Z,61.43
2022-11-13T13:31:38.898Z,60.24
2022-11-13T13:32:52.588Z,60.51
2022-11-13T13:34:06.398Z,61.63
2022-11-13T13:35:17.051Z,61.91
2022-11-13T13:36:36.237Z,61.49
2022-11-13T13:37:46.657Z,61.67
2022-11-13T13:38:57.041Z,60.76
2022-11-13T13:40:11.540Z,60.56
2022-11-13T13:41:30.639Z,61.04
2022-11-13T13:42:54.861Z,60.99
2022-11-13T13:44:15.913Z,61.17
2022-11-13T13:45:29.228Z,60.57
2022-11-13T13:46:34.628Z,61.64
2022-11-13T13:47:39.722Z,61.92
2022-11-13T13:48:46.860Z,62.66
2022-11-13T13:49:50.205Z,61.85
2022-11-13T13:50:54.791Z,62.29
2022-11-13T13:51:59.322Z,62.67
2022-11-13T13:53:02.808Z,63.07
2022-11-13T13:54:09.575Z,64.12
2022-11-13T13:55:20.618Z,63.81
2022-11-13T13:56:24.239Z,63.97
2022-11-13T13:57:29.124Z,63.93
2022-11-13T13:58:34.891Z,63.77
2022-11-13T13:59:38.797Z,63.05
2022-11-13T14:00:58.930Z,62.69
2022-11-13T14:02:04.504Z,61.73
2022-11-13T14:03:18.622Z,61.95
2022-11-13T14:04:23.205Z,61.01
2022-11-13T14:05:28.950Z,61.22
2022-11-13T14:06:32.166Z,61.67
2022-11-13T14:07:35.926Z,61.20
2022-11-13T14:08:39.311Z,61.31
2022-11-13T14:09:41.762Z,61.52
2022-11-13T14:10:46.946Z,61.52
2022-11-13T14:11:57.099Z,61.14